< < Back
Terminal Aerodrome Forecast


Current Version              Previous Versions:   1  2  3  4  5  6  7  8  9  

Terminal Aerodrome Forecast

131
FTUS42 KGSP 011125
TAFAND
TAF
KAND 011125Z 0112/0212 04005KT P6SM -RA OVC018
      TEMPO 0112/0116 4SM -RA BR SCT018 OVC035
     FM012000 00000KT P6SM OVC015
     FM020000 22003KT P6SM OVC008
     FM020400 21003KT P6SM OVC004=



Latest METAR

500
SAUS70 KWBC 011900 RRX
MTRAND
METAR KAND 011856Z AUTO 00000KT 10SM OVC007 06/04 A3043 RMK AO2 RAE43
CIG 005V009 SLP308 P0002 T00560039


USA.gov is the U.S. government's official web portal to all federal, state and local government web resources and services.